KBZN/BZN METAR and TAF weather

Enter ICAO airport designator
Station Type Date Time Source
KBZN METAR 2020/10/22 03:56 UTC NOAA

KBZN 220356Z 32018KT 4SM -SN OVC041 M02/M04 A2998 RMK AO2 PK WND 33026/0327 SLP176 P0000 T10171044


Station Type Date Time Source
KBZN Decoded METAR 2020/10/22 03:56 UTC NOAA

BOZEMAN GALLATIN FIELD, MT, United States (KBZN) 45-47N 111-09W 1361M
Oct 21, 2020 - 11:56 PM EDT / 2020.10.22 0356 UTC
Wind: from the NW (320 degrees) at 21 MPH (18 KT):0
Visibility: 4 mile(s):0
Sky conditions: overcast
Weather: light snow
Precipitation last hour: A trace
Temperature: 28.9 F (-1.7 C)
Windchill: 15 F (-9 C):1
Dew Point: 24.1 F (-4.4 C)
Relative Humidity: 81%
Pressure (altimeter): 29.98 in. Hg (1015 hPa)
ob: KBZN 220356Z 32018KT 4SM -SN OVC041 M02/M04 A2998 RMK AO2 PK WND 33026/0327 SLP176 P0000 T10171044
cycle: 4

Station Type Date Time Source
KBZN TAF 2020/10/21 19:30 UTC NOAA

TAF
AMD KBZN 211929Z 2119/2224 29007KT P6SM VCSH SCT020 BKN050
TEMPO 2119/2123 4SM -SHRASN BR BKN020
FM220100 34010G20KT 6SM BR SCT025 OVC040
TEMPO 2201/2204 2SM -RASN BR BKN025 OVC040
FM220400 32010KT 4SM -SN BR SCT015 BKN025 PROB30 2204/2209 2SM -SN BR BKN015 OVC025
FM220900 30008KT 6SM -SHSN SCT025 BKN050 PROB30 2209/2212 4SM -SN BR BKN025
FM221800 VRB06KT P6SM SCT050 BKN090

Example: see airport list